Time,TemperatureF,DewpointF,PressureIn,WindDirection,WindDirectionDegrees,WindSpeedMPH,WindSpeedGustMPH,Humidity,HourlyPrecipIn,Conditions,Clouds,dailyrainin,SoftwareType,DateUTC
2013-01-01 00:00:00,33.8,32.8,30.49,ENE,68,1.0,3.0,96,0.00,,,0.00,WUHU216DAVISVP2,2013-01-01 08:00:00,
2013-01-01 00:02:00,33.9,32.6,30.49,East,79,1.0,3.0,95,0.00,,,0.00,WUHU216DAVISVP2,2013-01-01 08:02:00,
2013-01-01 00:07:00,33.9,32.6,30.49,ENE,67,1.0,3.0,95,0.00,,,0.00,WUHU216DAVISVP2,2013-01-01 08:07:00,
2013-01-01 00:12:00,33.9,32.6,30.50,East,93,0.0,2.0,95,0.00,,,0.00,WUHU216DAVISVP2,2013-01-01 08:12:00,
2013-01-01 00:17:00,33.9,32.6,30.50,East,93,0.0,2.0,95,0.00,,,0.00,WUHU216DAVISVP2,2013-01-01 08:17:00,
2013-01-01 00:22:00,33.8,32.5,30.50,East,93,0.0,2.0,95,0.00,,,0.00,WUHU216DAVISVP2,2013-01-01 08:22:00,
2013-01-01 00:27:00,33.7,32.4,30.50,East,93,0.0,0.0,95,0.00,,,0.00,WUHU216DAVISVP2,2013-01-01 08:27:00,
2013-01-01 00:30:00,33.7,32.4,30.50,ENE,68,0.0,2.0,95,0.00,,,0.00,WUHU216DAVISVP2,2013-01-01 08:30:00,
2013-01-01 00:32:00,33.6,32.3,30.51,East,93,0.0,0.0,95,0.00,,,0.00,WUHU216DAVISVP2,2013-01-01 08:32:00,
2013-01-01 00:37:00,33.7,32.4,30.50,ENE,76,1.0,2.0,95,0.00,,,0.00,WUHU216DAVISVP2,2013-01-01 08:37:00,
2013-01-01 00:42:00,34.0,32.7,30.50,East,79,2.0,3.0,95,0.00,,,0.00,WUHU216DAVISVP2,2013-01-01 08:42:00,
2013-01-01 00:47:00,34.1,32.8,30.50,ENE,63,1.0,3.0,95,0.00,,,0.00,WUHU216DAVISVP2,2013-01-01 08:47:00,
2013-01-01 00:52:00,34.1,32.5,30.50,ENE,77,0.0,3.0,94,0.00,,,0.00,WUHU216DAVISVP2,2013-01-01 08:52:00,
2013-01-01 00:57:00,34.0,32.4,30.50,ENE,58,1.0,2.0,94,0.00,,,0.00,WUHU216DAVISVP2,2013-01-01 08:57:00,
2013-01-01 01:00:00,34.0,32.5,30.51,ENE,68,1.0,3.0,94,0.00,,,0.00,WUHU216DAVISVP2,2013-01-01 09:00:00,
2013-01-01 01:02:00,33.9,32.3,30.50,ENE,63,2.0,2.0,94,0.00,,,0.00,WUHU216DAVISVP2,2013-01-01 09:02:00,
2013-01-01 01:07:00,33.7,32.4,30.50,ENE,61,1.0,3.0,95,0.00,,,0.00,WUHU216DAVISVP2,2013-01-01 09:07:00,
2013-01-01 01:12:00,33.6,32.3,30.50,ENE,65,1.0,3.0,95,0.00,,,0.00,WUHU216DAVISVP2,2013-01-01 09:12:00,
2013-01-01 01:18:00,33.4,32.1,30.50,NE,53,1.0,2.0,95,0.00,,,0.00,WUHU216DAVISVP2,2013-01-01 09:18:00,
2013-01-01 01:23:00,33.1,31.8,30.51,ENE,64,1.0,2.0,95,0.00,,,0.00,WUHU216DAVISVP2,2013-01-01 09:23:00,
2013-01-01 01:28:00,33.1,31.8,30.51,ENE,67,1.0,2.0,95,0.00,,,0.00,WUHU216DAVISVP2,2013-01-01 09:28:00,
2013-01-01 01:30:00,33.0,31.7,30.51,ENE,68,1.0,3.0,95,0.00,,,0.00,WUHU216DAVISVP2,2013-01-01 09:30:00,
2013-01-01 01:33:00,32.9,31.9,30.51,ENE,70,1.0,2.0,96,0.00,,,0.00,WUHU216DAVISVP2,2013-01-01 09:33:00,
2013-01-01 01:38:00,32.8,31.8,30.51,NE,44,0.0,2.0,96,0.00,,,0.00,WUHU216DAVISVP2,2013-01-01 09:38:00,
2013-01-01 01:43:00,32.8,31.7,30.51,ENE,70,3.0,3.0,96,0.00,,,0.00,WUHU216DAVISVP2,2013-01-01 09:43:00,
2013-01-01 01:48:00,32.8,31.7,30.51,ENE,72,1.0,4.0,96,0.00,,,0.00,WUHU216DAVISVP2,2013-01-01 09:48:00,
2013-01-01 01:53:00,32.7,31.6,30.51,NNW,345,1.0,4.0,96,0.00,,,0.00,WUHU216DAVISVP2,2013-01-01 09:53:00,
2013-01-01 01:58:00,32.6,31.3,30.51,ENE,63,1.0,4.0,95,0.00,,,0.00,WUHU216DAVISVP2,2013-01-01 09:58:00,
2013-01-01 02:00:00,32.5,31.2,30.51,ENE,68,1.0,4.0,95,0.00,,,0.00,WUHU216DAVISVP2,2013-01-01 10:00:00,
2013-01-01 02:03:00,32.5,31.2,30.51,ENE,72,2.0,4.0,95,0.00,,,0.00,WUHU216DAVISVP2,2013-01-01 10:03:00,
2013-01-01 02:08:00,32.4,31.1,30.52,ENE,70,2.0,4.0,95,0.00,,,0.00,WUHU216DAVISVP2,2013-01-01 10:08:00,
2013-01-01 02:13:00,32.3,30.7,30.52,ENE,77,0.0,4.0,94,0.00,,,0.00,WUHU216DAVISVP2,2013-01-01 10:13:00,
2013-01-01 02:18:00,32.3,30.7,30.52,East,91,0.0,3.0,94,0.00,,,0.00,WUHU216DAVISVP2,2013-01-01 10:18:00,
2013-01-01 02:23:00,32.2,30.4,30.52,ENE,59,0.0,3.0,93,0.00,,,0.00,WUHU216DAVISVP2,2013-01-01 10:23:00,
2013-01-01 02:28:00,32.2,30.4,30.53,North,354,0.0,2.0,93,0.00,,,0.00,WUHU216DAVISVP2,2013-01-01 10:28:00,
2013-01-01 02:30:00,32.2,30.4,30.53,ENE,68,1.0,3.0,93,0.00,,,0.00,WUHU216DAVISVP2,2013-01-01 10:30:00,
2013-01-01 02:33:00,32.1,30.3,30.53,East,83,0.0,2.0,93,0.00,,,0.00,WUHU216DAVISVP2,2013-01-01 10:33:00,
2013-01-01 02:38:00,32.1,30.3,30.53,North,358,0.0,1.0,93,0.00,,,0.00,WUHU216DAVISVP2,2013-01-01 10:38:00,
2013-01-01 02:43:00,32.0,30.2,30.53,NNE,33,0.0,1.0,93,0.00,,,0.00,WUHU216DAVISVP2,2013-01-01 10:43:00,
2013-01-01 02:48:00,32.0,30.2,30.53,ENE,75,0.0,1.0,93,0.00,,,0.00,WUHU216DAVISVP2,2013-01-01 10:48:00,
2013-01-01 02:53:00,32.0,30.2,30.53,ENE,77,1.0,1.0,93,0.00,,,0.00,WUHU216DAVISVP2,2013-01-01 10:53:00,
2013-01-01 02:58:00,32.0,30.2,30.53,ENE,73,0.0,2.0,93,0.00,,,0.00,WUHU216DAVISVP2,2013-01-01 10:58:00,
2013-01-01 03:00:00,32.0,30.2,30.53,ENE,68,0.0,2.0,93,0.00,,,0.00,WUHU216DAVISVP2,2013-01-01 11:00:00,
2013-01-01 03:03:00,32.0,29.9,30.53,ENE,63,0.0,2.0,92,0.00,,,0.00,WUHU216DAVISVP2,2013-01-01 11:03:00,
2013-01-01 03:08:00,31.9,29.8,30.53,ENE,63,1.0,2.0,92,0.00,,,0.00,WUHU216DAVISVP2,2013-01-01 11:08:00,
2013-01-01 03:13:00,31.8,29.7,30.52,ENE,72,0.0,2.0,92,0.00,,,0.00,WUHU216DAVISVP2,2013-01-01 11:13:00,
2013-01-01 03:18:00,31.8,29.7,30.52,ENE,75,0.0,2.0,92,0.00,,,0.00,WUHU216DAVISVP2,2013-01-01 11:18:00,
2013-01-01 03:23:00,31.7,29.6,30.52,ENE,59,1.0,3.0,92,0.00,,,0.00,WUHU216DAVISVP2,2013-01-01 11:23:00,
2013-01-01 03:28:00,31.6,29.5,30.51,NE,35,0.0,4.0,92,0.00,,,0.00,WUHU216DAVISVP2,2013-01-01 11:28:00,
2013-01-01 03:30:00,31.6,29.5,30.52,ENE,68,1.0,4.0,92,0.00,,,0.00,WUHU216DAVISVP2,2013-01-01 11:30:00,
2013-01-01 03:33:00,31.6,29.8,30.51,NE,54,1.0,4.0,93,0.00,,,0.00,WUHU216DAVISVP2,2013-01-01 11:33:00,
2013-01-01 03:38:00,31.4,29.6,30.51,East,92,2.0,4.0,93,0.00,,,0.00,WUHU216DAVISVP2,2013-01-01 11:38:00,
2013-01-01 03:43:00,31.2,29.4,30.51,East,86,2.0,5.0,93,0.00,,,0.00,WUHU216DAVISVP2,2013-01-01 11:43:00,
2013-01-01 03:48:00,30.9,29.1,30.51,East,82,1.0,5.0,93,0.00,,,0.00,WUHU216DAVISVP2,2013-01-01 11:48:00,
2013-01-01 03:53:00,30.8,28.7,30.51,ENE,78,0.0,4.0,92,0.00,,,0.00,WUHU216DAVISVP2,2013-01-01 11:53:00,
2013-01-01 03:58:00,30.8,28.7,30.51,East,94,0.0,2.0,92,0.00,,,0.00,WUHU216DAVISVP2,2013-01-01 11:58:00,
2013-01-01 04:00:00,30.7,28.4,30.51,ENE,68,1.0,5.0,91,0.00,,,0.00,WUHU216DAVISVP2,2013-01-01 12:00:00,
2013-01-01 04:03:00,30.6,28.2,30.51,East,82,0.0,2.0,91,0.00,,,0.00,WUHU216DAVISVP2,2013-01-01 12:03:00,
2013-01-01 04:08:00,30.6,28.0,30.50,ENE,72,0.0,2.0,90,0.00,,,0.00,WUHU216DAVISVP2,2013-01-01 12:08:00,
2013-01-01 04:13:00,30.5,27.9,30.50,ENE,60,0.0,2.0,90,0.00,,,0.00,WUHU216DAVISVP2,2013-01-01 12:13:00,
2013-01-01 04:18:00,30.4,27.8,30.50,WNW,293,0.0,2.0,90,0.00,,,0.00,WUHU216DAVISVP2,2013-01-01 12:18:00,
2013-01-01 04:23:00,30.3,27.9,30.50,NNW,347,0.0,2.0,91,0.00,,,0.00,WUHU216DAVISVP2,2013-01-01 12:23:00,
2013-01-01 04:28:00,30.3,28.2,30.50,NE,55,0.0,2.0,92,0.00,,,0.00,WUHU216DAVISVP2,2013-01-01 12:28:00,
2013-01-01 04:30:00,30.3,28.3,30.50,ENE,68,0.0,2.0,92,0.00,,,0.00,WUHU216DAVISVP2,2013-01-01 12:30:00,
2013-01-01 04:33:00,30.3,28.5,30.50,ENE,77,1.0,2.0,93,0.00,,,0.00,WUHU216DAVISVP2,2013-01-01 12:33:00,
2013-01-01 04:38:00,30.2,28.4,30.49,East,84,0.0,3.0,93,0.00,,,0.00,WUHU216DAVISVP2,2013-01-01 12:38:00,
2013-01-01 04:43:00,30.1,28.3,30.49,ENE,70,2.0,3.0,93,0.00,,,0.00,WUHU216DAVISVP2,2013-01-01 12:43:00,
2013-01-01 04:48:00,30.1,28.3,30.49,East,84,2.0,3.0,93,0.00,,,0.00,WUHU216DAVISVP2,2013-01-01 12:48:00,
2013-01-01 04:53:00,30.0,28.2,30.49,SSE,149,0.0,3.0,93,0.00,,,0.00,WUHU216DAVISVP2,2013-01-01 12:53:00,
2013-01-01 04:58:00,29.9,28.1,30.49,WSW,238,0.0,2.0,93,0.00,,,0.00,WUHU216DAVISVP2,2013-01-01 12:58:00,
2013-01-01 05:00:00,29.9,28.1,30.49,ENE,68,1.0,3.0,93,0.00,,,0.00,WUHU216DAVISVP2,2013-01-01 13:00:00,
2013-01-01 05:03:00,29.8,28.2,30.49,WSW,240,0.0,2.0,94,0.00,,,0.00,WUHU216DAVISVP2,2013-01-01 13:03:00,
2013-01-01 05:08:00,29.7,28.1,30.49,WSW,238,0.0,1.0,94,0.00,,,0.00,WUHU216DAVISVP2,2013-01-01 13:08:00,
2013-01-01 05:13:00,29.7,28.1,30.49,WSW,239,0.0,1.0,94,0.00,,,0.00,WUHU216DAVISVP2,2013-01-01 13:13:00,
2013-01-01 05:18:00,29.5,27.9,30.48,WSW,239,0.0,0.0,94,0.00,,,0.00,WUHU216DAVISVP2,2013-01-01 13:18:00,
2013-01-01 05:23:00,29.3,27.7,30.48,WSW,239,0.0,0.0,94,0.00,,,0.00,WUHU216DAVISVP2,2013-01-01 13:23:00,
2013-01-01 05:28:00,29.0,27.4,30.48,WSW,238,0.0,0.0,94,0.00,,,0.00,WUHU216DAVISVP2,2013-01-01 13:28:00,
2013-01-01 05:30:00,28.9,27.4,30.48,North,0,0.0,0.0,94,0.00,,,0.00,WUHU216DAVISVP2,2013-01-01 13:30:00,
2013-01-01 05:33:00,28.6,27.0,30.48,WSW,239,0.0,0.0,94,0.00,,,0.00,WUHU216DAVISVP2,2013-01-01 13:33:00,
2013-01-01 05:37:00,28.6,27.0,30.48,WSW,238,0.0,0.0,94,0.00,,,0.00,WUHU216DAVISVP2,2013-01-01 13:37:00,
2013-01-01 05:43:00,28.8,27.5,30.48,North,358,0.0,1.0,95,0.00,,,0.00,WUHU216DAVISVP2,2013-01-01 13:43:00,
2013-01-01 05:48:00,28.8,27.5,30.48,North,359,0.0,1.0,95,0.00,,,0.00,WUHU216DAVISVP2,2013-01-01 13:48:00,
2013-01-01 05:53:00,28.8,27.5,30.48,North,359,0.0,1.0,95,0.00,,,0.00,WUHU216DAVISVP2,2013-01-01 13:53:00,
2013-01-01 05:58:00,28.6,27.3,30.48,North,3,0.0,1.0,95,0.00,,,0.00,WUHU216DAVISVP2,2013-01-01 13:58:00,
2013-01-01 06:00:00,28.6,27.4,30.49,North,0,0.0,1.0,95,0.00,,,0.00,WUHU216DAVISVP2,2013-01-01 14:00:00,
2013-01-01 06:03:00,28.5,27.2,30.49,North,3,0.0,1.0,95,0.00,,,0.00,WUHU216DAVISVP2,2013-01-01 14:03:00,
2013-01-01 06:08:00,28.5,27.2,30.49,North,4,0.0,1.0,95,0.00,,,0.00,WUHU216DAVISVP2,2013-01-01 14:08:00,
2013-01-01 06:13:00,28.4,27.1,30.49,ENE,61,0.0,1.0,95,0.00,,,0.00,WUHU216DAVISVP2,2013-01-01 14:13:00,
2013-01-01 06:18:00,28.7,27.4,30.49,North,1,0.0,1.0,95,0.00,,,0.00,WUHU216DAVISVP2,2013-01-01 14:18:00,
2013-01-01 06:23:00,28.9,27.6,30.49,NNE,28,0.0,1.0,95,0.00,,,0.00,WUHU216DAVISVP2,2013-01-01 14:23:00,
2013-01-01 06:28:00,29.0,27.7,30.49,North,8,1.0,1.0,95,0.00,,,0.00,WUHU216DAVISVP2,2013-01-01 14:28:00,
2013-01-01 06:30:00,29.1,27.8,30.49,NNW,338,0.0,2.0,95,0.00,,,0.00,WUHU216DAVISVP2,2013-01-01 14:30:00,
2013-01-01 06:33:00,29.2,27.9,30.49,ENE,65,0.0,2.0,95,0.00,,,0.00,WUHU216DAVISVP2,2013-01-01 14:33:00,
2013-01-01 06:38:00,29.4,28.1,30.49,NW,318,1.0,2.0,95,0.00,,,0.00,WUHU216DAVISVP2,2013-01-01 14:38:00,
2013-01-01 06:43:00,29.4,27.8,30.49,NNE,12,0.0,2.0,94,0.00,,,0.00,WUHU216DAVISVP2,2013-01-01 14:43:00,
2013-01-01 06:48:00,29.4,27.8,30.49,ENE,70,0.0,2.0,94,0.00,,,0.00,WUHU216DAVISVP2,2013-01-01 14:48:00,
2013-01-01 06:53:00,29.3,27.7,30.49,North,350,1.0,2.0,94,0.00,,,0.00,WUHU216DAVISVP2,2013-01-01 14:53:00,
2013-01-01 06:58:00,29.3,27.7,30.48,ENE,65,0.0,2.0,94,0.00,,,0.00,WUHU216DAVISVP2,2013-01-01 14:58:00,
2013-01-01 07:00:00,29.3,27.8,30.49,ENE,68,0.0,2.0,94,0.00,,,0.00,WUHU216DAVISVP2,2013-01-01 15:00:00,
2013-01-01 07:03:00,29.4,27.8,30.49,ENE,68,0.0,2.0,94,0.00,,,0.00,WUHU216DAVISVP2,2013-01-01 15:03:00,
2013-01-01 07:08:00,29.4,27.9,30.49,ENE,70,2.0,2.0,94,0.00,,,0.00,WUHU216DAVISVP2,2013-01-01 15:08:00,
2013-01-01 07:13:00,29.3,27.7,30.49,East,82,0.0,2.0,94,0.00,,,0.00,WUHU216DAVISVP2,2013-01-01 15:13:00,
2013-01-01 07:18:00,29.3,27.7,30.49,ENE,65,1.0,2.0,94,0.00,,,0.00,WUHU216DAVISVP2,2013-01-01 15:18:00,
2013-01-01 07:23:00,29.3,27.7,30.49,ENE,70,1.0,3.0,94,0.00,,,0.00,WUHU216DAVISVP2,2013-01-01 15:23:00,
2013-01-01 07:28:00,29.4,27.8,30.49,ENE,60,1.0,3.0,94,0.00,,,0.00,WUHU216DAVISVP2,2013-01-01 15:28:00,
2013-01-01 07:30:00,29.3,27.8,30.49,ENE,68,1.0,3.0,94,0.00,,,0.00,WUHU216DAVISVP2,2013-01-01 15:30:00,
2013-01-01 07:33:00,29.4,27.8,30.49,ENE,77,2.0,3.0,94,0.00,,,0.00,WUHU216DAVISVP2,2013-01-01 15:33:00,
2013-01-01 07:38:00,29.5,28.0,30.50,ENE,72,1.0,3.0,94,0.00,,,0.00,WUHU216DAVISVP2,2013-01-01 15:38:00,
2013-01-01 07:43:00,29.4,27.8,30.50,ENE,70,1.0,3.0,94,0.00,,,0.00,WUHU216DAVISVP2,2013-01-01 15:43:00,
2013-01-01 07:48:00,29.3,27.7,30.50,East,96,1.0,3.0,94,0.00,,,0.00,WUHU216DAVISVP2,2013-01-01 15:48:00,
2013-01-01 07:53:00,29.4,28.1,30.50,East,84,3.0,4.0,95,0.00,,,0.00,WUHU216DAVISVP2,2013-01-01 15:53:00,
2013-01-01 07:58:00,29.5,28.2,30.50,ENE,76,4.0,4.0,95,0.00,,,0.00,WUHU216DAVISVP2,2013-01-01 15:58:00,
2013-01-01 08:00:00,29.5,28.2,30.50,ENE,68,2.0,4.0,95,0.00,,,0.00,WUHU216DAVISVP2,2013-01-01 16:00:00,
2013-01-01 08:03:00,29.6,28.3,30.51,ENE,75,4.0,5.0,95,0.00,,,0.00,WUHU216DAVISVP2,2013-01-01 16:03:00,
2013-01-01 08:08:00,29.6,28.0,30.51,East,95,3.0,5.0,94,0.00,,,0.00,WUHU216DAVISVP2,2013-01-01 16:08:00,
2013-01-01 08:13:00,29.6,28.0,30.52,ENE,66,0.0,5.0,94,0.00,,,0.00,WUHU216DAVISVP2,2013-01-01 16:13:00,
2013-01-01 08:18:00,29.6,28.0,30.52,NNW,341,0.0,5.0,94,0.00,,,0.00,WUHU216DAVISVP2,2013-01-01 16:18:00,
2013-01-01 08:23:00,29.4,27.8,30.53,North,356,0.0,4.0,94,0.00,,,0.00,WUHU216DAVISVP2,2013-01-01 16:23:00,
2013-01-01 08:28:00,29.4,27.8,30.53,North,354,0.0,3.0,94,0.00,,,0.00,WUHU216DAVISVP2,2013-01-01 16:28:00,
2013-01-01 08:30:00,29.4,27.9,30.53,ENE,68,1.0,5.0,94,0.00,,,0.00,WUHU216DAVISVP2,2013-01-01 16:30:00,
2013-01-01 08:33:00,29.2,27.7,30.53,North,354,0.0,1.0,94,0.00,,,0.00,WUHU216DAVISVP2,2013-01-01 16:33:00,
2013-01-01 08:38:00,29.3,28.0,30.53,ENE,76,0.0,1.0,95,0.00,,,0.00,WUHU216DAVISVP2,2013-01-01 16:38:00,
2013-01-01 08:43:00,29.8,28.5,30.53,North,4,1.0,1.0,95,0.00,,,0.00,WUHU216DAVISVP2,2013-01-01 16:43:00,
2013-01-01 08:48:00,30.1,28.8,30.54,East,91,0.0,2.0,95,0.00,,,0.00,WUHU216DAVISVP2,2013-01-01 16:48:00,
2013-01-01 08:53:00,30.3,28.7,30.53,ENE,75,1.0,2.0,94,0.00,,,0.00,WUHU216DAVISVP2,2013-01-01 16:53:00,
2013-01-01 08:58:00,30.7,29.1,30.53,NE,40,1.0,2.0,94,0.00,,,0.00,WUHU216DAVISVP2,2013-01-01 16:58:00,
2013-01-01 09:00:00,30.8,29.0,30.53,ENE,68,0.0,2.0,93,0.00,,,0.00,WUHU216DAVISVP2,2013-01-01 17:00:00,
2013-01-01 09:03:00,31.0,29.2,30.53,ENE,63,2.0,3.0,93,0.00,,,0.00,WUHU216DAVISVP2,2013-01-01 17:03:00,
2013-01-01 09:07:00,31.2,29.4,30.53,ENE,77,0.0,3.0,93,0.00,,,0.00,WUHU216DAVISVP2,2013-01-01 17:07:00,
2013-01-01 09:12:00,31.7,29.6,30.53,ENE,65,0.0,3.0,92,0.00,,,0.00,WUHU216DAVISVP2,2013-01-01 17:12:00,
2013-01-01 09:17:00,32.0,29.6,30.53,ENE,75,0.0,3.0,91,0.00,,,0.00,WUHU216DAVISVP2,2013-01-01 17:17:00,
2013-01-01 09:22:00,32.3,29.6,30.53,ENE,73,0.0,3.0,90,0.00,,,0.00,WUHU216DAVISVP2,2013-01-01 17:22:00,
2013-01-01 09:27:00,32.4,29.5,30.53,East,80,1.0,3.0,89,0.00,,,0.00,WUHU216DAVISVP2,2013-01-01 17:27:00,
2013-01-01 09:30:00,32.5,29.6,30.53,ENE,68,1.0,3.0,89,0.00,,,0.00,WUHU216DAVISVP2,2013-01-01 17:30:00,
2013-01-01 09:32:00,32.6,29.7,30.53,East,84,2.0,4.0,89,0.00,,,0.00,WUHU216DAVISVP2,2013-01-01 17:32:00,
2013-01-01 09:37:00,32.8,29.9,30.53,NE,56,0.0,4.0,89,0.00,,,0.00,WUHU216DAVISVP2,2013-01-01 17:37:00,
2013-01-01 09:42:00,33.0,29.8,30.53,ENE,70,0.0,4.0,88,0.00,,,0.00,WUHU216DAVISVP2,2013-01-01 17:42:00,
2013-01-01 09:47:00,33.1,29.9,30.53,ENE,65,1.0,4.0,88,0.00,,,0.00,WUHU216DAVISVP2,2013-01-01 17:47:00,
2013-01-01 09:52:00,33.5,30.3,30.53,ENE,65,0.0,4.0,88,0.00,,,0.00,WUHU216DAVISVP2,2013-01-01 17:52:00,
2013-01-01 09:57:00,34.0,30.5,30.53,NNE,16,0.0,3.0,87,0.00,,,0.00,WUHU216DAVISVP2,2013-01-01 17:57:00,
2013-01-01 10:00:00,34.1,30.6,30.53,ENE,68,1.0,4.0,87,0.00,,,0.00,WUHU216DAVISVP2,2013-01-01 18:00:00,
2013-01-01 10:02:00,34.4,31.2,30.53,ESE,108,0.0,3.0,88,0.00,,,0.00,WUHU216DAVISVP2,2013-01-01 18:02:00,
2013-01-01 10:07:00,34.8,30.7,30.53,East,96,0.0,3.0,85,0.00,,,0.00,WUHU216DAVISVP2,2013-01-01 18:07:00,
2013-01-01 10:12:00,35.1,31.0,30.53,NE,52,0.0,2.0,85,0.00,,,0.00,WUHU216DAVISVP2,2013-01-01 18:12:00,
2013-01-01 10:17:00,35.3,30.9,30.53,NNE,30,0.0,4.0,84,0.00,,,0.00,WUHU216DAVISVP2,2013-01-01 18:17:00,
2013-01-01 10:22:00,35.6,30.6,30.53,North,352,2.0,4.0,82,0.00,,,0.00,WUHU216DAVISVP2,2013-01-01 18:22:00,
2013-01-01 10:27:00,35.8,30.5,30.53,North,353,0.0,3.0,81,0.00,,,0.00,WUHU216DAVISVP2,2013-01-01 18:27:00,
2013-01-01 10:30:00,35.9,30.6,30.53,NNW,338,0.0,4.0,81,0.00,,,0.00,WUHU216DAVISVP2,2013-01-01 18:30:00,
2013-01-01 10:32:00,36.0,30.7,30.53,North,10,0.0,3.0,81,0.00,,,0.00,WUHU216DAVISVP2,2013-01-01 18:32:00,
2013-01-01 10:37:00,36.2,30.6,30.53,NNE,15,0.0,4.0,80,0.00,,,0.00,WUHU216DAVISVP2,2013-01-01 18:37:00,
2013-01-01 10:43:00,36.6,31.0,30.53,North,359,0.0,4.0,80,0.00,,,0.00,WUHU216DAVISVP2,2013-01-01 18:43:00,
2013-01-01 10:48:00,36.7,30.5,30.53,NNW,333,0.0,4.0,78,0.00,,,0.00,WUHU216DAVISVP2,2013-01-01 18:48:00,
2013-01-01 10:53:00,36.8,30.3,30.53,North,353,0.0,4.0,77,0.00,,,0.00,WUHU216DAVISVP2,2013-01-01 18:53:00,
2013-01-01 10:58:00,37.2,30.4,30.52,North,352,0.0,4.0,76,0.00,,,0.00,WUHU216DAVISVP2,2013-01-01 18:58:00,
2013-01-01 11:00:00,37.2,30.3,30.52,North,0,0.0,4.0,76,0.00,,,0.00,WUHU216DAVISVP2,2013-01-01 19:00:00,
2013-01-01 11:03:00,37.4,30.9,30.52,WSW,250,0.0,4.0,77,0.00,,,0.00,WUHU216DAVISVP2,2013-01-01 19:03:00,
2013-01-01 11:08:00,37.9,31.4,30.52,North,3,0.0,2.0,77,0.00,,,0.00,WUHU216DAVISVP2,2013-01-01 19:08:00,
2013-01-01 11:13:00,38.1,30.9,30.52,NNW,346,0.0,2.0,75,0.00,,,0.00,WUHU216DAVISVP2,2013-01-01 19:13:00,
2013-01-01 11:18:00,38.1,30.9,30.51,North,355,0.0,2.0,75,0.00,,,0.00,WUHU216DAVISVP2,2013-01-01 19:18:00,
2013-01-01 11:23:00,38.5,31.0,30.51,NNW,330,0.0,1.0,74,0.00,,,0.00,WUHU216DAVISVP2,2013-01-01 19:23:00,
2013-01-01 11:28:00,39.3,32.0,30.51,West,277,0.0,1.0,75,0.00,,,0.00,WUHU216DAVISVP2,2013-01-01 19:28:00,
2013-01-01 11:30:00,39.6,32.0,30.51,NNW,338,0.0,2.0,74,0.00,,,0.00,WUHU216DAVISVP2,2013-01-01 19:30:00,
2013-01-01 11:33:00,39.9,31.9,30.51,NNE,25,0.0,1.0,73,0.00,,,0.00,WUHU216DAVISVP2,2013-01-01 19:33:00,
2013-01-01 11:38:00,40.0,32.0,30.51,North,359,0.0,1.0,73,0.00,,,0.00,WUHU216DAVISVP2,2013-01-01 19:38:00,
2013-01-01 11:43:00,40.2,33.3,30.51,South,181,0.0,0.0,76,0.00,,,0.00,WUHU216DAVISVP2,2013-01-01 19:43:00,
2013-01-01 11:48:00,40.7,33.8,30.50,SE,139,0.0,0.0,76,0.00,,,0.00,WUHU216DAVISVP2,2013-01-01 19:48:00,
2013-01-01 11:53:00,40.9,33.6,30.50,SW,222,0.0,0.0,75,0.00,,,0.00,WUHU216DAVISVP2,2013-01-01 19:53:00,
2013-01-01 11:58:00,40.7,32.8,30.50,WSW,242,0.0,1.0,73,0.00,,,0.00,WUHU216DAVISVP2,2013-01-01 19:58:00,
2013-01-01 12:00:00,40.6,32.6,30.50,North,0,0.0,1.0,73,0.00,,,0.00,WUHU216DAVISVP2,2013-01-01 20:00:00,
2013-01-01 12:03:00,40.5,32.6,30.50,NNW,345,0.0,1.0,73,0.00,,,0.00,WUHU216DAVISVP2,2013-01-01 20:03:00,
2013-01-01 12:08:00,40.3,33.3,30.50,North,354,0.0,1.0,76,0.00,,,0.00,WUHU216DAVISVP2,2013-01-01 20:08:00,
2013-01-01 12:13:00,40.4,33.5,30.50,NNE,26,0.0,1.0,76,0.00,,,0.00,WUHU216DAVISVP2,2013-01-01 20:13:00,
2013-01-01 12:18:00,40.4,33.5,30.49,NNE,32,0.0,1.0,76,0.00,,,0.00,WUHU216DAVISVP2,2013-01-01 20:18:00,
2013-01-01 12:23:00,40.6,32.7,30.49,NNW,343,0.0,3.0,73,0.00,,,0.00,WUHU216DAVISVP2,2013-01-01 20:23:00,
2013-01-01 12:28:00,40.0,32.8,30.49,SW,232,0.0,4.0,75,0.00,,,0.00,WUHU216DAVISVP2,2013-01-01 20:28:00,
2013-01-01 12:30:00,40.1,32.8,30.49,North,0,0.0,4.0,75,0.00,,,0.00,WUHU216DAVISVP2,2013-01-01 20:30:00,
2013-01-01 12:33:00,40.1,32.5,30.49,North,353,0.0,4.0,74,0.00,,,0.00,WUHU216DAVISVP2,2013-01-01 20:33:00,
2013-01-01 12:38:00,40.3,33.4,30.49,NNE,17,0.0,4.0,76,0.00,,,0.00,WUHU216DAVISVP2,2013-01-01 20:38:00,
2013-01-01 12:43:00,40.4,33.8,30.48,North,6,0.0,4.0,77,0.00,,,0.00,WUHU216DAVISVP2,2013-01-01 20:43:00,
2013-01-01 12:48:00,40.4,34.4,30.48,NE,44,0.0,4.0,79,0.00,,,0.00,WUHU216DAVISVP2,2013-01-01 20:48:00,
2013-01-01 12:53:00,40.4,34.4,30.48,South,190,0.0,4.0,79,0.00,,,0.00,WUHU216DAVISVP2,2013-01-01 20:53:00,
2013-01-01 12:58:00,40.4,34.4,30.48,North,9,1.0,3.0,79,0.00,,,0.00,WUHU216DAVISVP2,2013-01-01 20:58:00,
2013-01-01 13:00:00,40.4,34.4,30.48,North,0,0.0,4.0,79,0.00,,,0.00,WUHU216DAVISVP2,2013-01-01 21:00:00,
2013-01-01 13:03:00,40.4,34.4,30.48,North,4,0.0,3.0,79,0.00,,,0.00,WUHU216DAVISVP2,2013-01-01 21:03:00,
2013-01-01 13:08:00,40.4,34.4,30.48,NNE,17,0.0,2.0,79,0.00,,,0.00,WUHU216DAVISVP2,2013-01-01 21:08:00,
2013-01-01 13:13:00,40.5,34.2,30.48,NNW,346,0.0,2.0,78,0.00,,,0.00,WUHU216DAVISVP2,2013-01-01 21:13:00,
2013-01-01 13:18:00,40.4,34.4,30.48,NNE,12,0.0,3.0,79,0.00,,,0.00,WUHU216DAVISVP2,2013-01-01 21:18:00,
2013-01-01 13:23:00,40.3,34.6,30.48,ENE,62,0.0,3.0,80,0.00,,,0.00,WUHU216DAVISVP2,2013-01-01 21:23:00,
2013-01-01 13:28:00,40.3,34.3,30.48,North,4,0.0,3.0,79,0.00,,,0.00,WUHU216DAVISVP2,2013-01-01 21:28:00,
2013-01-01 13:30:00,40.3,34.6,30.48,NNE,23,0.0,3.0,80,0.00,,,0.00,WUHU216DAVISVP2,2013-01-01 21:30:00,
2013-01-01 13:33:00,40.3,34.6,30.48,North,349,0.0,3.0,80,0.00,,,0.00,WUHU216DAVISVP2,2013-01-01 21:33:00,
2013-01-01 13:38:00,40.3,34.6,30.48,North,359,0.0,2.0,80,0.00,,,0.00,WUHU216DAVISVP2,2013-01-01 21:38:00,
2013-01-01 13:43:00,40.1,34.4,30.47,NNE,30,0.0,3.0,80,0.00,,,0.00,WUHU216DAVISVP2,2013-01-01 21:43:00,
2013-01-01 13:48:00,40.3,34.6,30.48,NW,305,1.0,3.0,80,0.00,,,0.00,WUHU216DAVISVP2,2013-01-01 21:48:00,
2013-01-01 13:53:00,40.4,34.7,30.48,NNE,19,0.0,2.0,80,0.00,,,0.00,WUHU216DAVISVP2,2013-01-01 21:53:00,
2013-01-01 13:58:00,40.4,34.7,30.48,ENE,65,0.0,2.0,80,0.00,,,0.00,WUHU216DAVISVP2,2013-01-01 21:58:00,
2013-01-01 14:00:00,40.5,35.1,30.48,North,0,0.0,3.0,81,0.00,,,0.00,WUHU216DAVISVP2,2013-01-01 22:00:00,
2013-01-01 14:03:00,40.5,34.8,30.48,NE,41,0.0,2.0,80,0.00,,,0.00,WUHU216DAVISVP2,2013-01-01 22:03:00,
2013-01-01 14:08:00,40.5,34.8,30.48,NNE,30,0.0,1.0,80,0.00,,,0.00,WUHU216DAVISVP2,2013-01-01 22:08:00,
2013-01-01 14:13:00,40.5,34.8,30.48,NNE,23,0.0,1.0,80,0.00,,,0.00,WUHU216DAVISVP2,2013-01-01 22:13:00,
2013-01-01 14:18:00,40.5,34.8,30.48,North,6,0.0,1.0,80,0.00,,,0.00,WUHU216DAVISVP2,2013-01-01 22:18:00,
2013-01-01 14:23:00,40.3,34.3,30.48,North,356,0.0,4.0,79,0.00,,,0.00,WUHU216DAVISVP2,2013-01-01 22:23:00,
2013-01-01 14:28:00,40.1,33.8,30.48,North,356,4.0,5.0,78,0.00,,,0.00,WUHU216DAVISVP2,2013-01-01 22:28:00,
2013-01-01 14:30:00,40.1,33.8,30.48,North,0,0.0,5.0,78,0.00,,,0.00,WUHU216DAVISVP2,2013-01-01 22:30:00,
2013-01-01 14:33:00,40.1,33.8,30.47,NNW,329,0.0,5.0,78,0.00,,,0.00,WUHU216DAVISVP2,2013-01-01 22:33:00,
2013-01-01 14:38:00,40.3,33.7,30.48,NNW,338,0.0,5.0,77,0.00,,,0.00,WUHU216DAVISVP2,2013-01-01 22:38:00,
2013-01-01 14:43:00,40.3,33.7,30.47,North,354,0.0,4.0,77,0.00,,,0.00,WUHU216DAVISVP2,2013-01-01 22:43:00,
2013-01-01 14:48:00,40.3,33.7,30.47,NNW,346,0.0,5.0,77,0.00,,,0.00,WUHU216DAVISVP2,2013-01-01 22:48:00,
2013-01-01 14:53:00,40.2,33.9,30.47,North,4,0.0,5.0,78,0.00,,,0.00,WUHU216DAVISVP2,2013-01-01 22:53:00,
2013-01-01 14:58:00,40.3,34.0,30.47,North,352,0.0,4.0,78,0.00,,,0.00,WUHU216DAVISVP2,2013-01-01 22:58:00,
2013-01-01 15:00:00,40.3,33.7,30.47,North,0,0.0,5.0,77,0.00,,,0.00,WUHU216DAVISVP2,2013-01-01 23:00:00,
2013-01-01 15:03:00,40.1,33.8,30.47,North,3,0.0,4.0,78,0.00,,,0.00,WUHU216DAVISVP2,2013-01-01 23:03:00,
2013-01-01 15:08:00,40.1,33.8,30.47,NNW,346,0.0,2.0,78,0.00,,,0.00,WUHU216DAVISVP2,2013-01-01 23:08:00,
2013-01-01 15:13:00,40.0,33.7,30.47,North,354,0.0,3.0,78,0.00,,,0.00,WUHU216DAVISVP2,2013-01-01 23:13:00,
2013-01-01 15:18:00,40.0,34.0,30.47,North,5,0.0,3.0,79,0.00,,,0.00,WUHU216DAVISVP2,2013-01-01 23:18:00,
2013-01-01 15:23:00,39.9,33.6,30.46,NNE,22,0.0,3.0,78,0.00,,,0.00,WUHU216DAVISVP2,2013-01-01 23:23:00,
2013-01-01 15:28:00,39.8,33.8,30.46,North,5,1.0,3.0,79,0.00,,,0.00,WUHU216DAVISVP2,2013-01-01 23:28:00,
2013-01-01 15:30:00,39.7,33.4,30.46,North,0,0.0,3.0,78,0.00,,,0.00,WUHU216DAVISVP2,2013-01-01 23:30:00,
2013-01-01 15:33:00,39.7,33.7,30.47,NNW,347,0.0,3.0,79,0.00,,,0.00,WUHU216DAVISVP2,2013-01-01 23:33:00,
2013-01-01 15:38:00,39.6,33.6,30.47,NW,315,0.0,3.0,79,0.00,,,0.00,WUHU216DAVISVP2,2013-01-01 23:38:00,
2013-01-01 15:43:00,39.5,33.9,30.47,North,357,0.0,3.0,80,0.00,,,0.00,WUHU216DAVISVP2,2013-01-01 23:43:00,
2013-01-01 15:48:00,39.3,33.7,30.47,North,5,0.0,2.0,80,0.00,,,0.00,WUHU216DAVISVP2,2013-01-01 23:48:00,
2013-01-01 15:53:00,39.1,33.5,30.47,NNW,347,0.0,1.0,80,0.00,,,0.00,WUHU216DAVISVP2,2013-01-01 23:53:00,
2013-01-01 15:58:00,38.8,33.2,30.47,North,8,0.0,1.0,80,0.00,,,0.00,WUHU216DAVISVP2,2013-01-01 23:58:00,
2013-01-01 16:00:00,38.8,33.2,30.47,North,0,0.0,2.0,80,0.00,,,0.00,WUHU216DAVISVP2,2013-01-02 00:00:00,
2013-01-01 16:03:00,38.6,33.0,30.47,North,10,0.0,1.0,80,0.00,,,0.00,WUHU216DAVISVP2,2013-01-02 00:03:00,
2013-01-01 16:08:00,38.3,32.7,30.47,NNW,329,0.0,3.0,80,0.00,,,0.00,WUHU216DAVISVP2,2013-01-02 00:08:00,
2013-01-01 16:13:00,38.1,32.8,30.46,North,360,2.0,3.0,81,0.00,,,0.00,WUHU216DAVISVP2,2013-01-02 00:13:00,
2013-01-01 16:18:00,38.0,33.0,30.46,NNE,27,2.0,3.0,82,0.00,,,0.00,WUHU216DAVISVP2,2013-01-02 00:18:00,
2013-01-01 16:23:00,37.9,33.2,30.46,North,355,0.0,5.0,83,0.00,,,0.00,WUHU216DAVISVP2,2013-01-02 00:23:00,
2013-01-01 16:28:00,37.7,33.3,30.46,North,1,6.0,6.0,84,0.00,,,0.00,WUHU216DAVISVP2,2013-01-02 00:28:00,
2013-01-01 16:30:00,37.7,33.6,30.46,North,0,1.0,6.0,85,0.00,,,0.00,WUHU216DAVISVP2,2013-01-02 00:30:00,
2013-01-01 16:33:00,37.6,33.5,30.46,North,8,2.0,6.0,85,0.00,,,0.00,WUHU216DAVISVP2,2013-01-02 00:33:00,
2013-01-01 16:38:00,37.5,33.4,30.46,North,353,5.0,6.0,85,0.00,,,0.00,WUHU216DAVISVP2,2013-01-02 00:38:00,
2013-01-01 16:43:00,37.3,33.2,30.46,NNW,348,2.0,6.0,85,0.00,,,0.00,WUHU216DAVISVP2,2013-01-02 00:43:00,
2013-01-01 16:48:00,37.2,33.1,30.46,NNW,346,2.0,6.0,85,0.00,,,0.00,WUHU216DAVISVP2,2013-01-02 00:48:00,
2013-01-01 16:53:00,37.1,32.7,30.46,NNW,342,2.0,6.0,84,0.00,,,0.00,WUHU216DAVISVP2,2013-01-02 00:53:00,
2013-01-01 16:58:00,37.0,32.3,30.46,NNW,338,2.0,6.0,83,0.00,,,0.00,WUHU216DAVISVP2,2013-01-02 00:58:00,
2013-01-01 17:00:00,37.0,32.3,30.45,North,0,2.0,6.0,83,0.00,,,0.00,WUHU216DAVISVP2,2013-01-02 01:00:00,
2013-01-01 17:03:00,36.9,32.2,30.45,NNW,348,1.0,6.0,83,0.00,,,0.00,WUHU216DAVISVP2,2013-01-02 01:03:00,
2013-01-01 17:08:00,36.8,32.4,30.45,North,353,2.0,6.0,84,0.00,,,0.00,WUHU216DAVISVP2,2013-01-02 01:08:00,
2013-01-01 17:13:00,36.7,32.3,30.45,North,355,2.0,6.0,84,0.00,,,0.00,WUHU216DAVISVP2,2013-01-02 01:13:00,
2013-01-01 17:18:00,36.5,32.1,30.45,North,8,0.0,6.0,84,0.00,,,0.00,WUHU216DAVISVP2,2013-01-02 01:18:00,
2013-01-01 17:23:00,36.4,32.3,30.45,NNE,16,4.0,6.0,85,0.00,,,0.00,WUHU216DAVISVP2,2013-01-02 01:23:00,
2013-01-01 17:28:00,36.3,32.2,30.45,North,350,2.0,5.0,85,0.00,,,0.00,WUHU216DAVISVP2,2013-01-02 01:28:00,
2013-01-01 17:30:00,36.3,32.2,30.45,North,0,2.0,6.0,85,0.00,,,0.00,WUHU216DAVISVP2,2013-01-02 01:30:00,
2013-01-01 17:33:00,36.2,32.4,30.45,North,354,1.0,6.0,86,0.00,,,0.00,WUHU216DAVISVP2,2013-01-02 01:33:00,
2013-01-01 17:38:00,36.1,32.3,30.45,NNW,333,2.0,6.0,86,0.00,,,0.00,WUHU216DAVISVP2,2013-01-02 01:38:00,
2013-01-01 17:43:00,36.0,32.2,30.45,NNE,24,3.0,6.0,86,0.00,,,0.00,WUHU216DAVISVP2,2013-01-02 01:43:00,
2013-01-01 17:48:00,36.0,32.2,30.45,North,352,1.0,6.0,86,0.00,,,0.00,WUHU216DAVISVP2,2013-01-02 01:48:00,
2013-01-01 17:53:00,35.9,32.1,30.44,North,359,3.0,6.0,86,0.00,,,0.00,WUHU216DAVISVP2,2013-01-02 01:53:00,
2013-01-01 17:57:00,35.9,32.1,30.44,North,352,2.0,5.0,86,0.00,,,0.00,WUHU216DAVISVP2,2013-01-02 01:57:00,
2013-01-01 18:00:00,35.9,31.8,30.44,North,0,3.0,6.0,85,0.00,,,0.00,WUHU216DAVISVP2,2013-01-02 02:00:00,
2013-01-01 18:02:00,35.9,31.8,30.44,NNW,348,2.0,7.0,85,0.00,,,0.00,WUHU216DAVISVP2,2013-01-02 02:02:00,
2013-01-01 18:07:00,36.0,31.6,30.44,North,359,5.0,7.0,84,0.00,,,0.00,WUHU216DAVISVP2,2013-01-02 02:07:00,
2013-01-01 18:12:00,36.1,31.4,30.44,North,353,1.0,6.0,83,0.00,,,0.00,WUHU216DAVISVP2,2013-01-02 02:12:00,
2013-01-01 18:17:00,36.1,31.4,30.44,NNE,12,1.0,6.0,83,0.00,,,0.00,WUHU216DAVISVP2,2013-01-02 02:17:00,
2013-01-01 18:22:00,36.1,31.4,30.43,NNW,346,2.0,5.0,83,0.00,,,0.00,WUHU216DAVISVP2,2013-01-02 02:22:00,
2013-01-01 18:27:00,36.0,31.3,30.43,NNW,341,2.0,4.0,83,0.00,,,0.00,WUHU216DAVISVP2,2013-01-02 02:27:00,
2013-01-01 18:30:00,36.0,31.3,30.43,North,0,2.0,7.0,83,0.00,,,0.00,WUHU216DAVISVP2,2013-01-02 02:30:00,
2013-01-01 18:32:00,35.9,31.2,30.43,NW,319,2.0,4.0,83,0.00,,,0.00,WUHU216DAVISVP2,2013-01-02 02:32:00,
2013-01-01 18:38:00,35.8,31.4,30.43,North,355,2.0,4.0,84,0.00,,,0.00,WUHU216DAVISVP2,2013-01-02 02:38:00,
2013-01-01 18:42:00,35.9,31.2,30.43,North,349,1.0,4.0,83,0.00,,,0.00,WUHU216DAVISVP2,2013-01-02 02:42:00,
2013-01-01 18:47:00,35.8,31.1,30.42,North,5,0.0,4.0,83,0.00,,,0.00,WUHU216DAVISVP2,2013-01-02 02:47:00,
2013-01-01 18:52:00,35.7,31.3,30.42,North,350,1.0,4.0,84,0.00,,,0.00,WUHU216DAVISVP2,2013-01-02 02:52:00,
2013-01-01 18:57:00,35.7,31.3,30.42,NNW,342,1.0,4.0,84,0.00,,,0.00,WUHU216DAVISVP2,2013-01-02 02:57:00,
2013-01-01 19:00:00,35.6,31.5,30.42,North,0,2.0,4.0,85,0.00,,,0.00,WUHU216DAVISVP2,2013-01-02 03:00:00,
2013-01-01 19:02:00,35.5,31.4,30.42,North,353,0.0,3.0,85,0.00,,,0.00,WUHU216DAVISVP2,2013-01-02 03:02:00,
2013-01-01 19:07:00,35.3,31.2,30.42,NNW,346,1.0,3.0,85,0.00,,,0.00,WUHU216DAVISVP2,2013-01-02 03:07:00,
2013-01-01 19:12:00,35.1,31.3,30.42,NNE,17,0.0,2.0,86,0.00,,,0.00,WUHU216DAVISVP2,2013-01-02 03:12:00,
2013-01-01 19:17:00,34.9,31.1,30.42,NNW,342,1.0,2.0,86,0.00,,,0.00,WUHU216DAVISVP2,2013-01-02 03:17:00,
2013-01-01 19:22:00,34.9,31.1,30.42,NNW,345,2.0,2.0,86,0.00,,,0.00,WUHU216DAVISVP2,2013-01-02 03:22:00,
2013-01-01 19:27:00,34.9,31.1,30.42,North,354,1.0,2.0,86,0.00,,,0.00,WUHU216DAVISVP2,2013-01-02 03:27:00,
2013-01-01 19:30:00,34.9,31.4,30.42,North,0,0.0,3.0,87,0.00,,,0.00,WUHU216DAVISVP2,2013-01-02 03:30:00,
2013-01-01 19:32:00,34.9,31.4,30.41,NNW,347,0.0,3.0,87,0.00,,,0.00,WUHU216DAVISVP2,2013-01-02 03:32:00,
2013-01-01 19:37:00,34.8,31.3,30.42,NNW,340,2.0,3.0,87,0.00,,,0.00,WUHU216DAVISVP2,2013-01-02 03:37:00,
2013-01-01 19:42:00,34.8,31.3,30.41,NNE,20,0.0,3.0,87,0.00,,,0.00,WUHU216DAVISVP2,2013-01-02 03:42:00,
2013-01-01 19:47:00,34.7,31.2,30.41,North,359,1.0,3.0,87,0.00,,,0.00,WUHU216DAVISVP2,2013-01-02 03:47:00,
2013-01-01 19:52:00,34.7,31.2,30.41,North,349,0.0,3.0,87,0.00,,,0.00,WUHU216DAVISVP2,2013-01-02 03:52:00,
2013-01-01 19:57:00,34.7,31.5,30.41,North,353,1.0,2.0,88,0.00,,,0.00,WUHU216DAVISVP2,2013-01-02 03:57:00,
2013-01-01 20:00:00,34.7,31.5,30.41,North,0,1.0,3.0,88,0.00,,,0.00,WUHU216DAVISVP2,2013-01-02 04:00:00,
2013-01-01 20:02:00,34.8,31.3,30.41,NNW,346,2.0,3.0,87,0.00,,,0.00,WUHU216DAVISVP2,2013-01-02 04:02:00,
2013-01-01 20:07:00,34.9,31.4,30.41,NNE,16,2.0,4.0,87,0.00,,,0.00,WUHU216DAVISVP2,2013-01-02 04:07:00,
2013-01-01 20:12:00,34.9,31.7,30.41,NE,37,3.0,4.0,88,0.00,,,0.00,WUHU216DAVISVP2,2013-01-02 04:12:00,
2013-01-01 20:17:00,34.8,31.6,30.41,NW,320,1.0,5.0,88,0.00,,,0.00,WUHU216DAVISVP2,2013-01-02 04:17:00,
2013-01-01 20:22:00,34.7,31.7,30.41,NNW,331,2.0,5.0,89,0.00,,,0.00,WUHU216DAVISVP2,2013-01-02 04:22:00,
2013-01-01 20:27:00,34.6,31.6,30.41,NNE,18,2.0,5.0,89,0.00,,,0.00,WUHU216DAVISVP2,2013-01-02 04:27:00,
2013-01-01 20:30:00,34.6,31.7,30.41,NNW,338,2.0,5.0,89,0.00,,,0.00,WUHU216DAVISVP2,2013-01-02 04:30:00,
2013-01-01 20:32:00,34.5,31.5,30.41,NNW,343,2.0,5.0,89,0.00,,,0.00,WUHU216DAVISVP2,2013-01-02 04:32:00,
2013-01-01 20:37:00,34.5,31.8,30.41,ENE,75,1.0,5.0,90,0.00,,,0.00,WUHU216DAVISVP2,2013-01-02 04:37:00,
2013-01-01 20:42:00,34.4,31.7,30.41,NE,47,0.0,4.0,90,0.00,,,0.00,WUHU216DAVISVP2,2013-01-02 04:42:00,
2013-01-01 20:47:00,34.3,31.7,30.41,ENE,63,0.0,4.0,90,0.00,,,0.00,WUHU216DAVISVP2,2013-01-02 04:47:00,
2013-01-01 20:52:00,34.4,31.5,30.41,East,101,0.0,4.0,89,0.00,,,0.00,WUHU216DAVISVP2,2013-01-02 04:52:00,
2013-01-01 20:57:00,34.3,31.4,30.41,NE,37,0.0,2.0,89,0.00,,,0.00,WUHU216DAVISVP2,2013-01-02 04:57:00,
2013-01-01 21:00:00,34.2,31.3,30.41,NE,37,0.0,2.0,89,0.00,,,0.00,WUHU216DAVISVP2,2013-01-02 05:00:00,
2013-01-01 21:02:00,34.1,31.2,30.41,NE,41,0.0,2.0,89,0.00,,,0.00,WUHU216DAVISVP2,2013-01-02 05:02:00,
2013-01-01 21:07:00,34.1,31.2,30.41,NE,55,0.0,2.0,89,0.00,,,0.00,WUHU216DAVISVP2,2013-01-02 05:07:00,
2013-01-01 21:12:00,34.1,31.2,30.41,ENE,66,2.0,2.0,89,0.00,,,0.00,WUHU216DAVISVP2,2013-01-02 05:12:00,
2013-01-01 21:17:00,34.1,31.2,30.41,ESE,117,0.0,2.0,89,0.00,,,0.00,WUHU216DAVISVP2,2013-01-02 05:17:00,
2013-01-01 21:22:00,34.0,31.1,30.41,NNE,32,1.0,2.0,89,0.00,,,0.00,WUHU216DAVISVP2,2013-01-02 05:22:00,
2013-01-01 21:27:00,34.1,31.2,30.41,ENE,72,0.0,2.0,89,0.00,,,0.00,WUHU216DAVISVP2,2013-01-02 05:27:00,
2013-01-01 21:30:00,34.0,31.1,30.42,ENE,68,0.0,2.0,89,0.00,,,0.00,WUHU216DAVISVP2,2013-01-02 05:30:00,
2013-01-01 21:32:00,34.0,31.1,30.41,NNW,347,0.0,2.0,89,0.00,,,0.00,WUHU216DAVISVP2,2013-01-02 05:32:00,
2013-01-01 21:37:00,33.7,30.8,30.42,NNW,347,0.0,2.0,89,0.00,,,0.00,WUHU216DAVISVP2,2013-01-02 05:37:00,
2013-01-01 21:42:00,33.3,30.6,30.41,NNW,347,0.0,2.0,90,0.00,,,0.00,WUHU216DAVISVP2,2013-01-02 05:42:00,
2013-01-01 21:47:00,33.5,30.8,30.41,ENE,77,1.0,3.0,90,0.00,,,0.00,WUHU216DAVISVP2,2013-01-02 05:47:00,
2013-01-01 21:52:00,33.8,31.1,30.41,NE,51,1.0,3.0,90,0.00,,,0.00,WUHU216DAVISVP2,2013-01-02 05:52:00,
2013-01-01 21:57:00,33.8,30.9,30.41,ENE,73,0.0,3.0,89,0.00,,,0.00,WUHU216DAVISVP2,2013-01-02 05:57:00,
2013-01-01 22:00:00,33.6,30.7,30.41,ENE,68,0.0,3.0,89,0.00,,,0.00,WUHU216DAVISVP2,2013-01-02 06:00:00,
2013-01-01 22:02:00,33.5,30.6,30.41,NNE,17,0.0,3.0,89,0.00,,,0.00,WUHU216DAVISVP2,2013-01-02 06:02:00,
2013-01-01 22:07:00,33.3,30.4,30.40,NNE,15,0.0,3.0,89,0.00,,,0.00,WUHU216DAVISVP2,2013-01-02 06:07:00,
2013-01-01 22:12:00,33.1,30.2,30.40,NNE,15,0.0,1.0,89,0.00,,,0.00,WUHU216DAVISVP2,2013-01-02 06:12:00,
2013-01-01 22:17:00,33.3,30.4,30.40,NE,53,1.0,3.0,89,0.00,,,0.00,WUHU216DAVISVP2,2013-01-02 06:17:00,
2013-01-01 22:22:00,33.5,30.3,30.40,ENE,70,2.0,3.0,88,0.00,,,0.00,WUHU216DAVISVP2,2013-01-02 06:22:00,
2013-01-01 22:27:00,33.7,30.2,30.40,East,83,0.0,4.0,87,0.00,,,0.00,WUHU216DAVISVP2,2013-01-02 06:27:00,
2013-01-01 22:30:00,33.7,30.2,30.40,ENE,68,0.0,4.0,87,0.00,,,0.00,WUHU216DAVISVP2,2013-01-02 06:30:00,
2013-01-01 22:32:00,33.8,30.3,30.40,ESE,105,0.0,4.0,87,0.00,,,0.00,WUHU216DAVISVP2,2013-01-02 06:32:00,
2013-01-01 22:37:00,33.9,30.1,30.40,ENE,75,0.0,3.0,86,0.00,,,0.00,WUHU216DAVISVP2,2013-01-02 06:37:00,
2013-01-01 22:42:00,34.0,29.7,30.40,ENE,73,0.0,3.0,84,0.00,,,0.00,WUHU216DAVISVP2,2013-01-02 06:42:00,
2013-01-01 22:47:00,33.8,29.5,30.40,ENE,73,0.0,2.0,84,0.00,,,0.00,WUHU216DAVISVP2,2013-01-02 06:47:00,
2013-01-01 22:52:00,33.4,29.1,30.40,ENE,74,0.0,1.0,84,0.00,,,0.00,WUHU216DAVISVP2,2013-01-02 06:52:00,
2013-01-01 22:57:00,33.8,29.2,30.40,ENE,65,2.0,2.0,83,0.00,,,0.00,WUHU216DAVISVP2,2013-01-02 06:57:00,
2013-01-01 23:00:00,34.3,29.1,30.40,ENE,68,0.0,2.0,81,0.00,,,0.00,WUHU216DAVISVP2,2013-01-02 07:00:00,
2013-01-01 23:02:00,34.5,29.0,30.40,ENE,72,0.0,2.0,80,0.00,,,0.00,WUHU216DAVISVP2,2013-01-02 07:02:00,
2013-01-01 23:07:00,34.5,29.0,30.40,ENE,77,0.0,2.0,80,0.00,,,0.00,WUHU216DAVISVP2,2013-01-02 07:07:00,
2013-01-01 23:11:00,34.3,28.8,30.40,ENE,65,1.0,2.0,80,0.00,,,0.00,WUHU216DAVISVP2,2013-01-02 07:11:00,
2013-01-01 23:16:00,34.4,28.9,30.39,North,11,0.0,2.0,80,0.00,,,0.00,WUHU216DAVISVP2,2013-01-02 07:16:00,
2013-01-01 23:21:00,34.1,28.9,30.40,NNE,12,0.0,1.0,81,0.00,,,0.00,WUHU216DAVISVP2,2013-01-02 07:21:00,
2013-01-01 23:26:00,33.5,28.6,30.40,North,11,0.0,1.0,82,0.00,,,0.00,WUHU216DAVISVP2,2013-01-02 07:26:00,
2013-01-01 23:30:00,33.1,28.8,30.40,ENE,68,0.0,2.0,84,0.00,,,0.00,WUHU216DAVISVP2,2013-01-02 07:30:00,
2013-01-01 23:31:00,32.9,29.1,30.39,North,11,0.0,1.0,86,0.00,,,0.00,WUHU216DAVISVP2,2013-01-02 07:31:00,
2013-01-01 23:36:00,32.5,29.0,30.40,NNE,12,0.0,0.0,87,0.00,,,0.00,WUHU216DAVISVP2,2013-01-02 07:36:00,
2013-01-01 23:41:00,32.2,29.0,30.40,NNE,12,0.0,0.0,88,0.00,,,0.00,WUHU216DAVISVP2,2013-01-02 07:41:00,
2013-01-01 23:46:00,32.1,28.9,30.40,North,11,0.0,0.0,88,0.00,,,0.00,WUHU216DAVISVP2,2013-01-02 07:46:00,
2013-01-01 23:51:00,32.1,28.9,30.40,North,11,0.0,1.0,88,0.00,,,0.00,WUHU216DAVISVP2,2013-01-02 07:51:00,
2013-01-01 23:57:00,32.3,28.6,30.40,North,6,0.0,1.0,86,0.00,,,0.00,WUHU216DAVISVP2,2013-01-02 07:57:00,